sensor_id;sensor_type;location;lat;lon;timestamp;P1;durP1;ratioP1;P2;durP2;ratioP2
81378;SDS011;70830;42.290;-71.354;2023-07-30T00:02:20;0.00;;;0.00;;
81378;SDS011;70830;42.290;-71.354;2023-07-30T00:04:47;0.00;;;0.00;;
81378;SDS011;70830;42.290;-71.354;2023-07-30T00:07:14;0.00;;;0.00;;
81378;SDS011;70830;42.290;-71.354;2023-07-30T00:09:40;0.00;;;0.00;;
81378;SDS011;70830;42.290;-71.354;2023-07-30T00:12:07;0.00;;;0.00;;
81378;SDS011;70830;42.290;-71.354;2023-07-30T00:14:33;0.00;;;0.00;;
81378;SDS011;70830;42.290;-71.354;2023-07-30T00:17:01;0.20;;;0.20;;
81378;SDS011;70830;42.290;-71.354;2023-07-30T00:19:27;0.00;;;0.00;;
81378;SDS011;70830;42.290;-71.354;2023-07-30T00:21:53;0.00;;;0.00;;
81378;SDS011;70830;42.290;-71.354;2023-07-30T00:24:19;0.00;;;0.00;;
81378;SDS011;70830;42.290;-71.354;2023-07-30T00:26:45;0.25;;;0.25;;
81378;SDS011;70830;42.290;-71.354;2023-07-30T00:29:10;0.00;;;0.00;;
81378;SDS011;70830;42.290;-71.354;2023-07-30T00:31:36;0.03;;;0.03;;
81378;SDS011;70830;42.290;-71.354;2023-07-30T00:34:02;0.00;;;0.00;;
81378;SDS011;70830;42.290;-71.354;2023-07-30T00:36:28;0.00;;;0.00;;
81378;SDS011;70830;42.290;-71.354;2023-07-30T00:38:54;0.00;;;0.00;;
81378;SDS011;70830;42.290;-71.354;2023-07-30T00:41:20;0.00;;;0.00;;
81378;SDS011;70830;42.290;-71.354;2023-07-30T00:43:46;0.00;;;0.00;;
81378;SDS011;70830;42.290;-71.354;2023-07-30T00:46:12;0.00;;;0.00;;
81378;SDS011;70830;42.290;-71.354;2023-07-30T00:48:38;0.00;;;0.00;;
81378;SDS011;70830;42.290;-71.354;2023-07-30T00:51:05;0.00;;;0.00;;
81378;SDS011;70830;42.290;-71.354;2023-07-30T00:53:33;0.00;;;0.00;;
81378;SDS011;70830;42.290;-71.354;2023-07-30T00:55:59;0.10;;;0.10;;
81378;SDS011;70830;42.290;-71.354;2023-07-30T00:58:26;0.08;;;0.08;;
81378;SDS011;70830;42.290;-71.354;2023-07-30T01:00:52;0.00;;;0.00;;
81378;SDS011;70830;42.290;-71.354;2023-07-30T01:03:19;0.00;;;0.00;;
81378;SDS011;70830;42.290;-71.354;2023-07-30T01:05:45;0.00;;;0.00;;
81378;SDS011;70830;42.290;-71.354;2023-07-30T01:08:11;0.40;;;0.10;;
81378;SDS011;70830;42.290;-71.354;2023-07-30T01:10:38;0.10;;;0.10;;
81378;SDS011;70830;42.290;-71.354;2023-07-30T01:13:05;0.00;;;0.00;;
81378;SDS011;70830;42.290;-71.354;2023-07-30T01:15:33;0.00;;;0.00;;
81378;SDS011;70830;42.290;-71.354;2023-07-30T01:17:59;0.00;;;0.00;;
81378;SDS011;70830;42.290;-71.354;2023-07-30T01:20:29;0.20;;;0.15;;
81378;SDS011;70830;42.290;-71.354;2023-07-30T01:22:56;0.00;;;0.00;;
81378;SDS011;70830;42.290;-71.354;2023-07-30T01:25:26;0.00;;;0.00;;
81378;SDS011;70830;42.290;-71.354;2023-07-30T01:27:55;0.00;;;0.00;;
81378;SDS011;70830;42.290;-71.354;2023-07-30T01:30:25;1.35;;;0.47;;
81378;SDS011;70830;42.290;-71.354;2023-07-30T01:32:54;0.00;;;0.00;;
81378;SDS011;70830;42.290;-71.354;2023-07-30T01:35:22;0.00;;;0.00;;
81378;SDS011;70830;42.290;-71.354;2023-07-30T01:37:52;0.00;;;0.00;;
81378;SDS011;70830;42.290;-71.354;2023-07-30T01:40:19;0.00;;;0.00;;
81378;SDS011;70830;42.290;-71.354;2023-07-30T01:42:46;0.00;;;0.00;;
81378;SDS011;70830;42.290;-71.354;2023-07-30T01:45:12;0.00;;;0.00;;
81378;SDS011;70830;42.290;-71.354;2023-07-30T01:47:38;0.00;;;0.00;;
81378;SDS011;70830;42.290;-71.354;2023-07-30T01:50:04;0.00;;;0.00;;
81378;SDS011;70830;42.290;-71.354;2023-07-30T01:52:30;0.00;;;0.00;;
81378;SDS011;70830;42.290;-71.354;2023-07-30T01:54:56;0.00;;;0.00;;
81378;SDS011;70830;42.290;-71.354;2023-07-30T01:57:24;0.00;;;0.00;;
81378;SDS011;70830;42.290;-71.354;2023-07-30T01:59:50;0.00;;;0.00;;
81378;SDS011;70830;42.290;-71.354;2023-07-30T02:02:16;0.00;;;0.00;;
81378;SDS011;70830;42.290;-71.354;2023-07-30T02:04:41;0.00;;;0.00;;
81378;SDS011;70830;42.290;-71.354;2023-07-30T02:07:07;0.00;;;0.00;;
81378;SDS011;70830;42.290;-71.354;2023-07-30T02:09:34;0.00;;;0.00;;
81378;SDS011;70830;42.290;-71.354;2023-07-30T02:12:00;0.00;;;0.00;;
81378;SDS011;70830;42.290;-71.354;2023-07-30T02:14:28;0.00;;;0.00;;
81378;SDS011;70830;42.290;-71.354;2023-07-30T02:16:54;0.00;;;0.00;;
81378;SDS011;70830;42.290;-71.354;2023-07-30T02:19:20;0.20;;;0.20;;
81378;SDS011;70830;42.290;-71.354;2023-07-30T02:21:46;0.00;;;0.00;;
81378;SDS011;70830;42.290;-71.354;2023-07-30T02:24:12;0.00;;;0.00;;
81378;SDS011;70830;42.290;-71.354;2023-07-30T02:26:38;0.00;;;0.00;;
81378;SDS011;70830;42.290;-71.354;2023-07-30T02:29:04;0.00;;;0.00;;
81378;SDS011;70830;42.290;-71.354;2023-07-30T02:31:30;0.10;;;0.10;;
81378;SDS011;70830;42.290;-71.354;2023-07-30T02:33:56;0.00;;;0.00;;
81378;SDS011;70830;42.290;-71.354;2023-07-30T02:36:23;0.00;;;0.00;;
81378;SDS011;70830;42.290;-71.354;2023-07-30T02:38:49;0.00;;;0.00;;
81378;SDS011;70830;42.290;-71.354;2023-07-30T02:41:16;0.25;;;0.25;;
81378;SDS011;70830;42.290;-71.354;2023-07-30T02:43:42;0.00;;;0.00;;
81378;SDS011;70830;42.290;-71.354;2023-07-30T02:46:08;0.00;;;0.00;;
81378;SDS011;70830;42.290;-71.354;2023-07-30T02:48:34;0.00;;;0.00;;
81378;SDS011;70830;42.290;-71.354;2023-07-30T02:51:00;0.00;;;0.00;;
81378;SDS011;70830;42.290;-71.354;2023-07-30T02:53:26;0.00;;;0.00;;
81378;SDS011;70830;42.290;-71.354;2023-07-30T02:55:52;0.65;;;0.57;;
81378;SDS011;70830;42.290;-71.354;2023-07-30T02:58:18;0.00;;;0.00;;
81378;SDS011;70830;42.290;-71.354;2023-07-30T03:00:44;0.00;;;0.00;;
81378;SDS011;70830;42.290;-71.354;2023-07-30T03:03:10;0.00;;;0.00;;
81378;SDS011;70830;42.290;-71.354;2023-07-30T03:05:41;0.00;;;0.00;;
81378;SDS011;70830;42.290;-71.354;2023-07-30T03:08:07;0.00;;;0.00;;
81378;SDS011;70830;42.290;-71.354;2023-07-30T03:10:33;0.00;;;0.00;;
81378;SDS011;70830;42.290;-71.354;2023-07-30T03:12:59;0.10;;;0.10;;
81378;SDS011;70830;42.290;-71.354;2023-07-30T03:15:26;0.00;;;0.00;;
81378;SDS011;70830;42.290;-71.354;2023-07-30T03:17:52;0.00;;;0.00;;
81378;SDS011;70830;42.290;-71.354;2023-07-30T03:20:18;0.00;;;0.00;;
81378;SDS011;70830;42.290;-71.354;2023-07-30T03:22:44;0.00;;;0.00;;
81378;SDS011;70830;42.290;-71.354;2023-07-30T03:25:10;0.10;;;0.10;;
81378;SDS011;70830;42.290;-71.354;2023-07-30T03:27:36;0.00;;;0.00;;
81378;SDS011;70830;42.290;-71.354;2023-07-30T03:30:02;0.00;;;0.00;;
81378;SDS011;70830;42.290;-71.354;2023-07-30T03:32:28;0.00;;;0.00;;
81378;SDS011;70830;42.290;-71.354;2023-07-30T03:34:54;0.00;;;0.00;;
81378;SDS011;70830;42.290;-71.354;2023-07-30T03:37:20;0.00;;;0.00;;
81378;SDS011;70830;42.290;-71.354;2023-07-30T03:39:46;0.00;;;0.00;;
81378;SDS011;70830;42.290;-71.354;2023-07-30T03:42:12;0.00;;;0.00;;
81378;SDS011;70830;42.290;-71.354;2023-07-30T03:44:37;0.25;;;0.25;;
81378;SDS011;70830;42.290;-71.354;2023-07-30T03:47:03;0.00;;;0.00;;
81378;SDS011;70830;42.290;-71.354;2023-07-30T03:49:29;0.00;;;0.00;;
81378;SDS011;70830;42.290;-71.354;2023-07-30T03:51:55;0.00;;;0.00;;
81378;SDS011;70830;42.290;-71.354;2023-07-30T03:54:21;0.20;;;0.15;;
81378;SDS011;70830;42.290;-71.354;2023-07-30T03:56:47;0.08;;;0.08;;
81378;SDS011;70830;42.290;-71.354;2023-07-30T03:59:13;0.00;;;0.00;;
81378;SDS011;70830;42.290;-71.354;2023-07-30T04:01:39;0.20;;;0.20;;
81378;SDS011;70830;42.290;-71.354;2023-07-30T04:04:05;0.00;;;0.00;;
81378;SDS011;70830;42.290;-71.354;2023-07-30T04:06:31;0.00;;;0.00;;
81378;SDS011;70830;42.290;-71.354;2023-07-30T04:08:57;0.52;;;0.10;;
81378;SDS011;70830;42.290;-71.354;2023-07-30T04:11:22;0.00;;;0.00;;
81378;SDS011;70830;42.290;-71.354;2023-07-30T04:13:48;0.00;;;0.00;;
81378;SDS011;70830;42.290;-71.354;2023-07-30T04:16:14;0.00;;;0.00;;
81378;SDS011;70830;42.290;-71.354;2023-07-30T04:18:41;0.00;;;0.00;;
81378;SDS011;70830;42.290;-71.354;2023-07-30T04:21:07;0.00;;;0.00;;
81378;SDS011;70830;42.290;-71.354;2023-07-30T04:23:33;0.00;;;0.00;;
81378;SDS011;70830;42.290;-71.354;2023-07-30T04:25:59;0.00;;;0.00;;
81378;SDS011;70830;42.290;-71.354;2023-07-30T04:28:25;0.00;;;0.00;;
81378;SDS011;70830;42.290;-71.354;2023-07-30T04:30:51;0.00;;;0.00;;
81378;SDS011;70830;42.290;-71.354;2023-07-30T04:33:16;0.00;;;0.00;;
81378;SDS011;70830;42.290;-71.354;2023-07-30T04:35:42;0.00;;;0.00;;
81378;SDS011;70830;42.290;-71.354;2023-07-30T04:38:08;0.00;;;0.00;;
81378;SDS011;70830;42.290;-71.354;2023-07-30T04:40:34;0.00;;;0.00;;
81378;SDS011;70830;42.290;-71.354;2023-07-30T04:43:02;0.75;;;0.60;;
81378;SDS011;70830;42.290;-71.354;2023-07-30T04:45:27;0.00;;;0.00;;
81378;SDS011;70830;42.290;-71.354;2023-07-30T04:47:53;0.00;;;0.00;;
81378;SDS011;70830;42.290;-71.354;2023-07-30T04:50:19;0.35;;;0.20;;
81378;SDS011;70830;42.290;-71.354;2023-07-30T04:52:46;0.00;;;0.00;;
81378;SDS011;70830;42.290;-71.354;2023-07-30T04:55:12;0.00;;;0.00;;
81378;SDS011;70830;42.290;-71.354;2023-07-30T04:57:38;0.05;;;0.05;;
81378;SDS011;70830;42.290;-71.354;2023-07-30T05:00:04;0.10;;;0.10;;
81378;SDS011;70830;42.290;-71.354;2023-07-30T05:02:31;0.00;;;0.00;;
81378;SDS011;70830;42.290;-71.354;2023-07-30T05:04:57;0.00;;;0.00;;
81378;SDS011;70830;42.290;-71.354;2023-07-30T05:07:23;0.08;;;0.05;;
81378;SDS011;70830;42.290;-71.354;2023-07-30T05:09:48;0.00;;;0.00;;
81378;SDS011;70830;42.290;-71.354;2023-07-30T05:12:14;0.00;;;0.00;;
81378;SDS011;70830;42.290;-71.354;2023-07-30T05:14:40;0.00;;;0.00;;
81378;SDS011;70830;42.290;-71.354;2023-07-30T05:17:06;0.00;;;0.00;;
81378;SDS011;70830;42.290;-71.354;2023-07-30T05:19:32;0.00;;;0.00;;
81378;SDS011;70830;42.290;-71.354;2023-07-30T05:21:58;0.00;;;0.00;;
81378;SDS011;70830;42.290;-71.354;2023-07-30T05:24:27;0.00;;;0.00;;
81378;SDS011;70830;42.290;-71.354;2023-07-30T05:26:53;0.00;;;0.00;;
81378;SDS011;70830;42.290;-71.354;2023-07-30T05:29:19;0.00;;;0.00;;
81378;SDS011;70830;42.290;-71.354;2023-07-30T05:31:45;0.00;;;0.00;;
81378;SDS011;70830;42.290;-71.354;2023-07-30T05:34:11;0.10;;;0.10;;
81378;SDS011;70830;42.290;-71.354;2023-07-30T05:36:37;0.00;;;0.00;;
81378;SDS011;70830;42.290;-71.354;2023-07-30T05:39:02;0.00;;;0.00;;
81378;SDS011;70830;42.290;-71.354;2023-07-30T05:41:28;0.00;;;0.00;;
81378;SDS011;70830;42.290;-71.354;2023-07-30T05:43:54;0.00;;;0.00;;
81378;SDS011;70830;42.290;-71.354;2023-07-30T05:46:20;0.00;;;0.00;;
81378;SDS011;70830;42.290;-71.354;2023-07-30T05:48:46;0.00;;;0.00;;
81378;SDS011;70830;42.290;-71.354;2023-07-30T05:51:12;0.00;;;0.00;;
81378;SDS011;70830;42.290;-71.354;2023-07-30T05:53:38;0.00;;;0.00;;
81378;SDS011;70830;42.290;-71.354;2023-07-30T05:56:04;0.00;;;0.00;;
81378;SDS011;70830;42.290;-71.354;2023-07-30T05:58:30;0.00;;;0.00;;
81378;SDS011;70830;42.290;-71.354;2023-07-30T06:00:56;0.00;;;0.00;;
81378;SDS011;70830;42.290;-71.354;2023-07-30T06:03:22;0.00;;;0.00;;
81378;SDS011;70830;42.290;-71.354;2023-07-30T06:05:48;0.00;;;0.00;;
81378;SDS011;70830;42.290;-71.354;2023-07-30T06:08:14;0.00;;;0.00;;
81378;SDS011;70830;42.290;-71.354;2023-07-30T06:10:40;0.00;;;0.00;;
81378;SDS011;70830;42.290;-71.354;2023-07-30T06:13:06;0.00;;;0.00;;
81378;SDS011;70830;42.290;-71.354;2023-07-30T06:15:32;0.00;;;0.00;;
81378;SDS011;70830;42.290;-71.354;2023-07-30T06:18:00;0.00;;;0.00;;
81378;SDS011;70830;42.290;-71.354;2023-07-30T06:20:28;0.00;;;0.00;;
81378;SDS011;70830;42.290;-71.354;2023-07-30T06:22:54;0.00;;;0.00;;
81378;SDS011;70830;42.290;-71.354;2023-07-30T06:25:21;0.30;;;0.10;;
81378;SDS011;70830;42.290;-71.354;2023-07-30T06:27:47;0.00;;;0.00;;
81378;SDS011;70830;42.290;-71.354;2023-07-30T06:30:13;0.00;;;0.00;;
81378;SDS011;70830;42.290;-71.354;2023-07-30T06:32:39;0.00;;;0.00;;
81378;SDS011;70830;42.290;-71.354;2023-07-30T06:35:05;0.00;;;0.00;;
81378;SDS011;70830;42.290;-71.354;2023-07-30T06:37:31;0.00;;;0.00;;
81378;SDS011;70830;42.290;-71.354;2023-07-30T06:39:58;0.00;;;0.00;;
81378;SDS011;70830;42.290;-71.354;2023-07-30T06:42:23;0.00;;;0.00;;
81378;SDS011;70830;42.290;-71.354;2023-07-30T06:44:49;0.00;;;0.00;;
81378;SDS011;70830;42.290;-71.354;2023-07-30T06:47:15;0.00;;;0.00;;
81378;SDS011;70830;42.290;-71.354;2023-07-30T06:49:41;0.00;;;0.00;;
81378;SDS011;70830;42.290;-71.354;2023-07-30T06:52:07;0.00;;;0.00;;
81378;SDS011;70830;42.290;-71.354;2023-07-30T06:54:33;0.00;;;0.00;;
81378;SDS011;70830;42.290;-71.354;2023-07-30T06:56:59;0.00;;;0.00;;
81378;SDS011;70830;42.290;-71.354;2023-07-30T06:59:25;0.00;;;0.00;;
81378;SDS011;70830;42.290;-71.354;2023-07-30T07:01:51;0.00;;;0.00;;
81378;SDS011;70830;42.290;-71.354;2023-07-30T07:04:17;0.00;;;0.00;;
81378;SDS011;70830;42.290;-71.354;2023-07-30T07:06:44;0.00;;;0.00;;
81378;SDS011;70830;42.290;-71.354;2023-07-30T07:09:10;0.00;;;0.00;;
81378;SDS011;70830;42.290;-71.354;2023-07-30T07:11:36;0.00;;;0.00;;
81378;SDS011;70830;42.290;-71.354;2023-07-30T07:14:02;0.00;;;0.00;;
81378;SDS011;70830;42.290;-71.354;2023-07-30T07:16:28;0.00;;;0.00;;
81378;SDS011;70830;42.290;-71.354;2023-07-30T07:18:54;0.00;;;0.00;;
81378;SDS011;70830;42.290;-71.354;2023-07-30T07:21:20;0.00;;;0.00;;
81378;SDS011;70830;42.290;-71.354;2023-07-30T07:23:46;0.00;;;0.00;;
81378;SDS011;70830;42.290;-71.354;2023-07-30T07:26:12;0.00;;;0.00;;
81378;SDS011;70830;42.290;-71.354;2023-07-30T07:28:38;0.00;;;0.00;;
81378;SDS011;70830;42.290;-71.354;2023-07-30T07:31:04;0.00;;;0.00;;
81378;SDS011;70830;42.290;-71.354;2023-07-30T07:33:30;0.00;;;0.00;;
81378;SDS011;70830;42.290;-71.354;2023-07-30T07:36:03;0.00;;;0.00;;
81378;SDS011;70830;42.290;-71.354;2023-07-30T07:38:31;0.00;;;0.00;;
81378;SDS011;70830;42.290;-71.354;2023-07-30T07:40:57;0.00;;;0.00;;
81378;SDS011;70830;42.290;-71.354;2023-07-30T07:43:23;0.00;;;0.00;;
81378;SDS011;70830;42.290;-71.354;2023-07-30T07:45:49;0.00;;;0.00;;
81378;SDS011;70830;42.290;-71.354;2023-07-30T07:48:15;0.00;;;0.00;;
81378;SDS011;70830;42.290;-71.354;2023-07-30T07:50:41;0.00;;;0.00;;
81378;SDS011;70830;42.290;-71.354;2023-07-30T07:53:07;0.00;;;0.00;;
81378;SDS011;70830;42.290;-71.354;2023-07-30T07:55:33;0.00;;;0.00;;
81378;SDS011;70830;42.290;-71.354;2023-07-30T07:57:59;0.00;;;0.00;;
81378;SDS011;70830;42.290;-71.354;2023-07-30T08:00:25;0.00;;;0.00;;
81378;SDS011;70830;42.290;-71.354;2023-07-30T08:02:51;0.10;;;0.10;;
81378;SDS011;70830;42.290;-71.354;2023-07-30T08:05:18;0.00;;;0.00;;
81378;SDS011;70830;42.290;-71.354;2023-07-30T08:07:47;0.00;;;0.00;;
81378;SDS011;70830;42.290;-71.354;2023-07-30T08:10:13;0.00;;;0.00;;
81378;SDS011;70830;42.290;-71.354;2023-07-30T08:12:39;0.00;;;0.00;;
81378;SDS011;70830;42.290;-71.354;2023-07-30T08:15:05;0.00;;;0.00;;
81378;SDS011;70830;42.290;-71.354;2023-07-30T08:17:32;0.45;;;0.20;;
81378;SDS011;70830;42.290;-71.354;2023-07-30T08:19:58;0.00;;;0.00;;
81378;SDS011;70830;42.290;-71.354;2023-07-30T08:22:24;0.00;;;0.00;;
81378;SDS011;70830;42.290;-71.354;2023-07-30T08:24:50;0.13;;;0.13;;
81378;SDS011;70830;42.290;-71.354;2023-07-30T08:27:15;0.00;;;0.00;;
81378;SDS011;70830;42.290;-71.354;2023-07-30T08:29:41;0.00;;;0.00;;
81378;SDS011;70830;42.290;-71.354;2023-07-30T08:32:07;0.00;;;0.00;;
81378;SDS011;70830;42.290;-71.354;2023-07-30T08:34:33;0.00;;;0.00;;
81378;SDS011;70830;42.290;-71.354;2023-07-30T08:36:59;0.00;;;0.00;;
81378;SDS011;70830;42.290;-71.354;2023-07-30T08:39:25;0.00;;;0.00;;
81378;SDS011;70830;42.290;-71.354;2023-07-30T08:41:51;0.00;;;0.00;;
81378;SDS011;70830;42.290;-71.354;2023-07-30T08:44:17;0.00;;;0.00;;
81378;SDS011;70830;42.290;-71.354;2023-07-30T08:46:43;0.00;;;0.00;;
81378;SDS011;70830;42.290;-71.354;2023-07-30T08:49:09;0.00;;;0.00;;
81378;SDS011;70830;42.290;-71.354;2023-07-30T08:51:35;0.00;;;0.00;;
81378;SDS011;70830;42.290;-71.354;2023-07-30T08:54:03;0.00;;;0.00;;
81378;SDS011;70830;42.290;-71.354;2023-07-30T08:56:30;0.00;;;0.00;;
81378;SDS011;70830;42.290;-71.354;2023-07-30T08:58:57;0.00;;;0.00;;
81378;SDS011;70830;42.290;-71.354;2023-07-30T09:01:25;0.00;;;0.00;;
81378;SDS011;70830;42.290;-71.354;2023-07-30T09:03:56;0.00;;;0.00;;
81378;SDS011;70830;42.290;-71.354;2023-07-30T09:06:25;0.00;;;0.00;;
81378;SDS011;70830;42.290;-71.354;2023-07-30T09:08:51;0.00;;;0.00;;
81378;SDS011;70830;42.290;-71.354;2023-07-30T09:11:18;0.98;;;0.98;;
81378;SDS011;70830;42.290;-71.354;2023-07-30T09:13:46;0.00;;;0.00;;
81378;SDS011;70830;42.290;-71.354;2023-07-30T09:16:12;0.00;;;0.00;;
81378;SDS011;70830;42.290;-71.354;2023-07-30T09:18:40;0.00;;;0.00;;
81378;SDS011;70830;42.290;-71.354;2023-07-30T09:21:07;0.13;;;0.13;;
81378;SDS011;70830;42.290;-71.354;2023-07-30T09:23:38;0.00;;;0.00;;
81378;SDS011;70830;42.290;-71.354;2023-07-30T09:26:05;0.00;;;0.00;;
81378;SDS011;70830;42.290;-71.354;2023-07-30T09:28:31;0.00;;;0.00;;
81378;SDS011;70830;42.290;-71.354;2023-07-30T09:31:04;0.00;;;0.00;;
81378;SDS011;70830;42.290;-71.354;2023-07-30T09:33:31;0.00;;;0.00;;
81378;SDS011;70830;42.290;-71.354;2023-07-30T09:35:58;0.00;;;0.00;;
81378;SDS011;70830;42.290;-71.354;2023-07-30T09:38:27;0.00;;;0.00;;
81378;SDS011;70830;42.290;-71.354;2023-07-30T09:40:59;0.00;;;0.00;;
81378;SDS011;70830;42.290;-71.354;2023-07-30T09:43:33;0.00;;;0.00;;
81378;SDS011;70830;42.290;-71.354;2023-07-30T09:46:03;0.00;;;0.00;;
81378;SDS011;70830;42.290;-71.354;2023-07-30T09:48:32;0.00;;;0.00;;
81378;SDS011;70830;42.290;-71.354;2023-07-30T09:50:59;0.00;;;0.00;;
81378;SDS011;70830;42.290;-71.354;2023-07-30T09:53:31;0.00;;;0.00;;
81378;SDS011;70830;42.290;-71.354;2023-07-30T09:56:01;0.00;;;0.00;;
81378;SDS011;70830;42.290;-71.354;2023-07-30T09:58:28;0.00;;;0.00;;
81378;SDS011;70830;42.290;-71.354;2023-07-30T10:00:55;0.00;;;0.00;;
81378;SDS011;70830;42.290;-71.354;2023-07-30T10:03:24;0.00;;;0.00;;
81378;SDS011;70830;42.290;-71.354;2023-07-30T10:05:50;0.00;;;0.00;;
81378;SDS011;70830;42.290;-71.354;2023-07-30T10:08:21;0.00;;;0.00;;
81378;SDS011;70830;42.290;-71.354;2023-07-30T10:10:49;0.00;;;0.00;;
81378;SDS011;70830;42.290;-71.354;2023-07-30T10:13:18;0.00;;;0.00;;
81378;SDS011;70830;42.290;-71.354;2023-07-30T10:15:47;0.00;;;0.00;;
81378;SDS011;70830;42.290;-71.354;2023-07-30T10:18:13;0.00;;;0.00;;
81378;SDS011;70830;42.290;-71.354;2023-07-30T10:20:39;0.00;;;0.00;;
81378;SDS011;70830;42.290;-71.354;2023-07-30T10:23:05;0.00;;;0.00;;
81378;SDS011;70830;42.290;-71.354;2023-07-30T10:25:47;0.00;;;0.00;;
81378;SDS011;70830;42.290;-71.354;2023-07-30T10:30:56;0.00;;;0.00;;
81378;SDS011;70830;42.290;-71.354;2023-07-30T10:36:29;0.00;;;0.00;;
81378;SDS011;70830;42.290;-71.354;2023-07-30T10:38:57;0.00;;;0.00;;
81378;SDS011;70830;42.290;-71.354;2023-07-30T10:41:23;0.00;;;0.00;;
81378;SDS011;70830;42.290;-71.354;2023-07-30T10:43:49;0.00;;;0.00;;
81378;SDS011;70830;42.290;-71.354;2023-07-30T10:46:19;0.00;;;0.00;;
81378;SDS011;70830;42.290;-71.354;2023-07-30T10:48:46;0.00;;;0.00;;
81378;SDS011;70830;42.290;-71.354;2023-07-30T10:51:14;0.00;;;0.00;;
81378;SDS011;70830;42.290;-71.354;2023-07-30T10:53:45;0.00;;;0.00;;
81378;SDS011;70830;42.290;-71.354;2023-07-30T10:56:12;0.00;;;0.00;;
81378;SDS011;70830;42.290;-71.354;2023-07-30T10:58:40;0.00;;;0.00;;
81378;SDS011;70830;42.290;-71.354;2023-07-30T11:01:08;0.00;;;0.00;;
81378;SDS011;70830;42.290;-71.354;2023-07-30T11:03:35;0.00;;;0.00;;
81378;SDS011;70830;42.290;-71.354;2023-07-30T11:06:03;0.00;;;0.00;;
81378;SDS011;70830;42.290;-71.354;2023-07-30T11:08:47;0.00;;;0.00;;
81378;SDS011;70830;42.290;-71.354;2023-07-30T11:11:13;0.00;;;0.00;;
81378;SDS011;70830;42.290;-71.354;2023-07-30T11:13:39;0.00;;;0.00;;
81378;SDS011;70830;42.290;-71.354;2023-07-30T11:16:07;0.00;;;0.00;;
81378;SDS011;70830;42.290;-71.354;2023-07-30T11:18:34;0.00;;;0.00;;
81378;SDS011;70830;42.290;-71.354;2023-07-30T11:21:12;0.00;;;0.00;;
81378;SDS011;70830;42.290;-71.354;2023-07-30T11:23:40;0.00;;;0.00;;
81378;SDS011;70830;42.290;-71.354;2023-07-30T11:26:08;0.00;;;0.00;;
81378;SDS011;70830;42.290;-71.354;2023-07-30T11:28:38;0.00;;;0.00;;
81378;SDS011;70830;42.290;-71.354;2023-07-30T11:31:09;0.00;;;0.00;;
81378;SDS011;70830;42.290;-71.354;2023-07-30T11:33:39;0.00;;;0.00;;
81378;SDS011;70830;42.290;-71.354;2023-07-30T11:36:07;0.00;;;0.00;;
81378;SDS011;70830;42.290;-71.354;2023-07-30T11:38:36;0.00;;;0.00;;
81378;SDS011;70830;42.290;-71.354;2023-07-30T11:41:04;0.00;;;0.00;;
81378;SDS011;70830;42.290;-71.354;2023-07-30T11:43:30;0.00;;;0.00;;
81378;SDS011;70830;42.290;-71.354;2023-07-30T11:46:06;0.00;;;0.00;;
81378;SDS011;70830;42.290;-71.354;2023-07-30T11:48:43;0.00;;;0.00;;
81378;SDS011;70830;42.290;-71.354;2023-07-30T11:51:20;0.00;;;0.00;;
81378;SDS011;70830;42.290;-71.354;2023-07-30T11:53:56;0.00;;;0.00;;
81378;SDS011;70830;42.290;-71.354;2023-07-30T11:56:25;0.00;;;0.00;;
81378;SDS011;70830;42.290;-71.354;2023-07-30T11:58:58;0.00;;;0.00;;
81378;SDS011;70830;42.290;-71.354;2023-07-30T12:01:26;0.00;;;0.00;;
81378;SDS011;70830;42.290;-71.354;2023-07-30T12:03:54;0.00;;;0.00;;
81378;SDS011;70830;42.290;-71.354;2023-07-30T12:06:21;0.00;;;0.00;;
81378;SDS011;70830;42.290;-71.354;2023-07-30T12:08:50;0.00;;;0.00;;
81378;SDS011;70830;42.290;-71.354;2023-07-30T12:11:17;0.00;;;0.00;;
81378;SDS011;70830;42.290;-71.354;2023-07-30T12:13:47;0.00;;;0.00;;
81378;SDS011;70830;42.290;-71.354;2023-07-30T12:16:15;0.00;;;0.00;;
81378;SDS011;70830;42.290;-71.354;2023-07-30T12:18:41;0.00;;;0.00;;
81378;SDS011;70830;42.290;-71.354;2023-07-30T12:21:07;0.00;;;0.00;;
81378;SDS011;70830;42.290;-71.354;2023-07-30T12:23:36;0.00;;;0.00;;
81378;SDS011;70830;42.290;-71.354;2023-07-30T12:26:03;0.00;;;0.00;;
81378;SDS011;70830;42.290;-71.354;2023-07-30T12:28:34;0.00;;;0.00;;
81378;SDS011;70830;42.290;-71.354;2023-07-30T12:31:00;0.00;;;0.00;;
81378;SDS011;70830;42.290;-71.354;2023-07-30T12:33:26;0.00;;;0.00;;
81378;SDS011;70830;42.290;-71.354;2023-07-30T12:35:53;0.00;;;0.00;;
81378;SDS011;70830;42.290;-71.354;2023-07-30T12:38:19;0.00;;;0.00;;
81378;SDS011;70830;42.290;-71.354;2023-07-30T12:40:45;0.00;;;0.00;;
81378;SDS011;70830;42.290;-71.354;2023-07-30T12:43:11;0.00;;;0.00;;
81378;SDS011;70830;42.290;-71.354;2023-07-30T12:45:37;1.00;;;0.30;;
81378;SDS011;70830;42.290;-71.354;2023-07-30T12:48:04;0.00;;;0.00;;
81378;SDS011;70830;42.290;-71.354;2023-07-30T12:50:30;0.00;;;0.00;;
81378;SDS011;70830;42.290;-71.354;2023-07-30T12:52:56;0.00;;;0.00;;
81378;SDS011;70830;42.290;-71.354;2023-07-30T12:55:22;0.00;;;0.00;;
81378;SDS011;70830;42.290;-71.354;2023-07-30T12:57:47;0.00;;;0.00;;
81378;SDS011;70830;42.290;-71.354;2023-07-30T13:00:13;0.00;;;0.00;;
81378;SDS011;70830;42.290;-71.354;2023-07-30T13:02:40;0.10;;;0.10;;
81378;SDS011;70830;42.290;-71.354;2023-07-30T13:05:06;0.30;;;0.30;;
81378;SDS011;70830;42.290;-71.354;2023-07-30T13:07:32;0.00;;;0.00;;
81378;SDS011;70830;42.290;-71.354;2023-07-30T13:10:04;0.40;;;0.40;;
81378;SDS011;70830;42.290;-71.354;2023-07-30T13:12:31;0.98;;;0.98;;
81378;SDS011;70830;42.290;-71.354;2023-07-30T13:14:58;1.90;;;1.80;;
81378;SDS011;70830;42.290;-71.354;2023-07-30T13:17:24;0.30;;;0.30;;
81378;SDS011;70830;42.290;-71.354;2023-07-30T13:19:50;0.82;;;0.82;;
81378;SDS011;70830;42.290;-71.354;2023-07-30T13:22:16;0.00;;;0.00;;
81378;SDS011;70830;42.290;-71.354;2023-07-30T13:24:42;0.00;;;0.00;;
81378;SDS011;70830;42.290;-71.354;2023-07-30T13:27:08;0.30;;;0.30;;
81378;SDS011;70830;42.290;-71.354;2023-07-30T13:29:34;0.00;;;0.00;;
81378;SDS011;70830;42.290;-71.354;2023-07-30T13:32:00;1.20;;;1.20;;
81378;SDS011;70830;42.290;-71.354;2023-07-30T13:34:26;0.45;;;0.45;;
81378;SDS011;70830;42.290;-71.354;2023-07-30T13:36:52;0.00;;;0.00;;
81378;SDS011;70830;42.290;-71.354;2023-07-30T13:39:18;1.60;;;1.40;;
81378;SDS011;70830;42.290;-71.354;2023-07-30T13:41:44;1.85;;;1.30;;
81378;SDS011;70830;42.290;-71.354;2023-07-30T13:44:10;3.60;;;1.83;;
81378;SDS011;70830;42.290;-71.354;2023-07-30T13:46:39;4.85;;;1.70;;
81378;SDS011;70830;42.290;-71.354;2023-07-30T13:49:05;1.88;;;1.30;;
81378;SDS011;70830;42.290;-71.354;2023-07-30T13:51:32;3.30;;;2.03;;
81378;SDS011;70830;42.290;-71.354;2023-07-30T13:53:58;8.30;;;6.80;;
81378;SDS011;70830;42.290;-71.354;2023-07-30T13:56:26;6.07;;;5.65;;
81378;SDS011;70830;42.290;-71.354;2023-07-30T13:58:52;5.88;;;4.15;;
81378;SDS011;70830;42.290;-71.354;2023-07-30T14:01:19;1.60;;;1.40;;
81378;SDS011;70830;42.290;-71.354;2023-07-30T14:03:44;3.65;;;1.60;;
81378;SDS011;70830;42.290;-71.354;2023-07-30T14:06:10;3.80;;;2.92;;
81378;SDS011;70830;42.290;-71.354;2023-07-30T14:08:37;5.25;;;4.75;;
81378;SDS011;70830;42.290;-71.354;2023-07-30T14:11:02;4.00;;;1.58;;
81378;SDS011;70830;42.290;-71.354;2023-07-30T14:13:28;1.65;;;1.40;;
81378;SDS011;70830;42.290;-71.354;2023-07-30T14:15:54;1.73;;;1.52;;
81378;SDS011;70830;42.290;-71.354;2023-07-30T14:18:21;2.00;;;1.17;;
81378;SDS011;70830;42.290;-71.354;2023-07-30T14:20:47;2.55;;;1.30;;
81378;SDS011;70830;42.290;-71.354;2023-07-30T14:23:13;1.67;;;1.15;;
81378;SDS011;70830;42.290;-71.354;2023-07-30T14:25:39;5.13;;;1.40;;